sensor_id;sensor_type;location;lat;lon;timestamp;P1;durP1;ratioP1;P2;durP2;ratioP2
30010;SDS011;16851;53.564;8.112;2023-06-26T00:00:08;7.30;;;6.60;;
30010;SDS011;16851;53.564;8.112;2023-06-26T00:05:12;9.75;;;7.80;;
30010;SDS011;16851;53.564;8.112;2023-06-26T00:10:15;8.82;;;7.88;;
30010;SDS011;16851;53.564;8.112;2023-06-26T00:15:19;8.95;;;7.80;;
30010;SDS011;16851;53.564;8.112;2023-06-26T00:20:25;8.68;;;7.78;;
30010;SDS011;16851;53.564;8.112;2023-06-26T00:25:32;11.20;;;7.38;;
30010;SDS011;16851;53.564;8.112;2023-06-26T00:30:36;8.80;;;7.90;;
30010;SDS011;16851;53.564;8.112;2023-06-26T00:35:40;17.27;;;7.85;;
30010;SDS011;16851;53.564;8.112;2023-06-26T00:40:45;9.23;;;7.70;;
30010;SDS011;16851;53.564;8.112;2023-06-26T00:45:49;19.25;;;8.38;;
30010;SDS011;16851;53.564;8.112;2023-06-26T00:50:53;10.02;;;8.02;;
30010;SDS011;16851;53.564;8.112;2023-06-26T00:55:58;10.10;;;8.52;;
30010;SDS011;16851;53.564;8.112;2023-06-26T01:01:03;8.50;;;7.40;;
30010;SDS011;16851;53.564;8.112;2023-06-26T01:06:21;10.05;;;8.25;;
30010;SDS011;16851;53.564;8.112;2023-06-26T01:11:26;9.18;;;8.00;;
30010;SDS011;16851;53.564;8.112;2023-06-26T01:16:28;9.02;;;7.97;;
30010;SDS011;16851;53.564;8.112;2023-06-26T01:21:33;9.68;;;7.78;;
30010;SDS011;16851;53.564;8.112;2023-06-26T01:26:36;8.55;;;7.43;;
30010;SDS011;16851;53.564;8.112;2023-06-26T01:31:41;12.15;;;8.07;;
30010;SDS011;16851;53.564;8.112;2023-06-26T01:36:47;8.45;;;7.63;;
30010;SDS011;16851;53.564;8.112;2023-06-26T01:41:52;9.68;;;8.40;;
30010;SDS011;16851;53.564;8.112;2023-06-26T01:47:01;9.07;;;8.18;;
30010;SDS011;16851;53.564;8.112;2023-06-26T01:52:24;9.45;;;7.90;;
30010;SDS011;16851;53.564;8.112;2023-06-26T01:57:28;8.75;;;7.88;;
30010;SDS011;16851;53.564;8.112;2023-06-26T02:02:33;9.23;;;8.25;;
30010;SDS011;16851;53.564;8.112;2023-06-26T02:07:41;9.23;;;8.02;;
30010;SDS011;16851;53.564;8.112;2023-06-26T02:12:48;9.50;;;8.43;;
30010;SDS011;16851;53.564;8.112;2023-06-26T02:17:52;9.85;;;7.97;;
30010;SDS011;16851;53.564;8.112;2023-06-26T02:22:57;9.70;;;8.70;;
30010;SDS011;16851;53.564;8.112;2023-06-26T02:27:59;13.38;;;8.73;;
30010;SDS011;16851;53.564;8.112;2023-06-26T02:33:03;9.70;;;8.43;;
30010;SDS011;16851;53.564;8.112;2023-06-26T02:38:05;10.32;;;8.45;;
30010;SDS011;16851;53.564;8.112;2023-06-26T02:43:07;9.15;;;8.25;;
30010;SDS011;16851;53.564;8.112;2023-06-26T02:48:09;11.32;;;9.20;;
30010;SDS011;16851;53.564;8.112;2023-06-26T02:53:15;12.82;;;9.32;;
30010;SDS011;16851;53.564;8.112;2023-06-26T02:58:23;15.45;;;8.80;;
30010;SDS011;16851;53.564;8.112;2023-06-26T03:03:25;9.75;;;8.70;;
30010;SDS011;16851;53.564;8.112;2023-06-26T03:08:28;11.82;;;10.48;;
30010;SDS011;16851;53.564;8.112;2023-06-26T03:13:34;10.88;;;9.27;;
30010;SDS011;16851;53.564;8.112;2023-06-26T03:18:38;10.43;;;9.32;;
30010;SDS011;16851;53.564;8.112;2023-06-26T03:23:40;11.30;;;9.75;;
30010;SDS011;16851;53.564;8.112;2023-06-26T03:28:47;11.05;;;9.70;;
30010;SDS011;16851;53.564;8.112;2023-06-26T03:33:52;11.57;;;9.35;;
30010;SDS011;16851;53.564;8.112;2023-06-26T03:38:57;9.93;;;8.40;;
30010;SDS011;16851;53.564;8.112;2023-06-26T03:43:59;12.32;;;9.05;;
30010;SDS011;16851;53.564;8.112;2023-06-26T03:49:09;11.00;;;8.82;;
30010;SDS011;16851;53.564;8.112;2023-06-26T03:54:12;10.98;;;9.10;;
30010;SDS011;16851;53.564;8.112;2023-06-26T03:59:17;10.10;;;9.00;;
30010;SDS011;16851;53.564;8.112;2023-06-26T04:04:18;11.38;;;8.80;;
30010;SDS011;16851;53.564;8.112;2023-06-26T04:09:21;12.35;;;9.13;;
30010;SDS011;16851;53.564;8.112;2023-06-26T04:14:23;11.38;;;9.20;;
30010;SDS011;16851;53.564;8.112;2023-06-26T04:19:28;10.20;;;8.70;;
30010;SDS011;16851;53.564;8.112;2023-06-26T04:24:32;10.63;;;8.80;;
30010;SDS011;16851;53.564;8.112;2023-06-26T04:29:34;9.00;;;8.10;;
30010;SDS011;16851;53.564;8.112;2023-06-26T04:34:36;10.13;;;7.97;;
30010;SDS011;16851;53.564;8.112;2023-06-26T04:39:40;11.85;;;9.13;;
30010;SDS011;16851;53.564;8.112;2023-06-26T04:44:41;10.40;;;8.32;;
30010;SDS011;16851;53.564;8.112;2023-06-26T04:49:46;10.02;;;8.20;;
30010;SDS011;16851;53.564;8.112;2023-06-26T04:54:48;11.65;;;8.05;;
30010;SDS011;16851;53.564;8.112;2023-06-26T04:59:53;12.80;;;8.50;;
30010;SDS011;16851;53.564;8.112;2023-06-26T05:04:55;11.40;;;7.93;;
30010;SDS011;16851;53.564;8.112;2023-06-26T05:09:57;10.82;;;7.88;;
30010;SDS011;16851;53.564;8.112;2023-06-26T05:14:58;11.43;;;8.65;;
30010;SDS011;16851;53.564;8.112;2023-06-26T05:20:00;10.38;;;8.75;;
30010;SDS011;16851;53.564;8.112;2023-06-26T05:25:04;10.80;;;8.57;;
30010;SDS011;16851;53.564;8.112;2023-06-26T05:30:07;10.48;;;8.70;;
30010;SDS011;16851;53.564;8.112;2023-06-26T05:35:15;13.10;;;8.90;;
30010;SDS011;16851;53.564;8.112;2023-06-26T05:40:23;9.90;;;8.57;;
30010;SDS011;16851;53.564;8.112;2023-06-26T05:45:25;9.75;;;8.75;;
30010;SDS011;16851;53.564;8.112;2023-06-26T05:50:29;11.05;;;8.75;;
30010;SDS011;16851;53.564;8.112;2023-06-26T05:55:31;12.63;;;8.95;;
30010;SDS011;16851;53.564;8.112;2023-06-26T06:00:38;16.08;;;9.18;;
30010;SDS011;16851;53.564;8.112;2023-06-26T06:05:59;11.30;;;8.80;;
30010;SDS011;16851;53.564;8.112;2023-06-26T06:11:11;10.85;;;9.18;;
30010;SDS011;16851;53.564;8.112;2023-06-26T06:16:13;12.50;;;10.25;;
30010;SDS011;16851;53.564;8.112;2023-06-26T06:21:17;11.30;;;9.98;;
30010;SDS011;16851;53.564;8.112;2023-06-26T06:26:19;9.70;;;8.70;;
30010;SDS011;16851;53.564;8.112;2023-06-26T06:31:21;12.20;;;10.90;;
30010;SDS011;16851;53.564;8.112;2023-06-26T06:36:22;15.73;;;9.48;;
30010;SDS011;16851;53.564;8.112;2023-06-26T06:41:27;17.48;;;11.10;;
30010;SDS011;16851;53.564;8.112;2023-06-26T06:46:28;11.23;;;10.05;;
30010;SDS011;16851;53.564;8.112;2023-06-26T06:51:30;14.23;;;10.48;;
30010;SDS011;16851;53.564;8.112;2023-06-26T06:56:32;21.45;;;11.40;;
30010;SDS011;16851;53.564;8.112;2023-06-26T07:01:42;13.07;;;9.75;;
30010;SDS011;16851;53.564;8.112;2023-06-26T07:07:07;11.20;;;9.32;;
30010;SDS011;16851;53.564;8.112;2023-06-26T07:13:11;14.93;;;10.57;;
30010;SDS011;16851;53.564;8.112;2023-06-26T07:18:46;16.88;;;10.40;;
30010;SDS011;16851;53.564;8.112;2023-06-26T07:25:07;16.70;;;10.60;;
30010;SDS011;16851;53.564;8.112;2023-06-26T07:31:06;15.95;;;10.20;;
30010;SDS011;16851;53.564;8.112;2023-06-26T07:36:16;16.20;;;10.35;;
30010;SDS011;16851;53.564;8.112;2023-06-26T07:41:24;19.92;;;11.77;;
30010;SDS011;16851;53.564;8.112;2023-06-26T07:46:52;19.10;;;10.75;;
30010;SDS011;16851;53.564;8.112;2023-06-26T07:52:19;23.08;;;10.38;;
30010;SDS011;16851;53.564;8.112;2023-06-26T07:57:30;20.95;;;9.43;;
30010;SDS011;16851;53.564;8.112;2023-06-26T08:02:40;19.70;;;9.68;;
30010;SDS011;16851;53.564;8.112;2023-06-26T08:07:53;20.77;;;9.52;;
30010;SDS011;16851;53.564;8.112;2023-06-26T08:13:13;20.35;;;8.82;;
30010;SDS011;16851;53.564;8.112;2023-06-26T08:18:22;24.42;;;8.15;;
30010;SDS011;16851;53.564;8.112;2023-06-26T08:23:34;22.58;;;8.18;;
30010;SDS011;16851;53.564;8.112;2023-06-26T08:28:41;17.77;;;7.93;;
30010;SDS011;16851;53.564;8.112;2023-06-26T08:33:53;17.73;;;6.68;;
30010;SDS011;16851;53.564;8.112;2023-06-26T08:39:13;19.42;;;5.75;;
30010;SDS011;16851;53.564;8.112;2023-06-26T08:44:32;12.25;;;4.72;;
30010;SDS011;16851;53.564;8.112;2023-06-26T08:49:45;7.68;;;2.83;;
30010;SDS011;16851;53.564;8.112;2023-06-26T08:55:19;8.88;;;2.72;;
30010;SDS011;16851;53.564;8.112;2023-06-26T09:00:33;10.57;;;2.63;;
30010;SDS011;16851;53.564;8.112;2023-06-26T09:05:40;14.18;;;2.92;;
30010;SDS011;16851;53.564;8.112;2023-06-26T09:10:52;12.50;;;2.47;;
30010;SDS011;16851;53.564;8.112;2023-06-26T09:16:07;9.13;;;2.35;;
30010;SDS011;16851;53.564;8.112;2023-06-26T09:21:21;11.27;;;2.72;;
30010;SDS011;16851;53.564;8.112;2023-06-26T09:26:46;16.15;;;2.70;;
30010;SDS011;16851;53.564;8.112;2023-06-26T09:31:58;10.63;;;2.20;;
30010;SDS011;16851;53.564;8.112;2023-06-26T09:37:13;7.78;;;2.05;;
30010;SDS011;16851;53.564;8.112;2023-06-26T09:42:22;10.30;;;2.60;;
30010;SDS011;16851;53.564;8.112;2023-06-26T09:47:37;10.98;;;2.30;;
30010;SDS011;16851;53.564;8.112;2023-06-26T09:52:57;11.07;;;2.47;;
30010;SDS011;16851;53.564;8.112;2023-06-26T09:58:05;14.82;;;2.63;;
30010;SDS011;16851;53.564;8.112;2023-06-26T10:03:22;10.45;;;1.95;;
30010;SDS011;16851;53.564;8.112;2023-06-26T10:08:33;12.60;;;2.20;;
30010;SDS011;16851;53.564;8.112;2023-06-26T10:13:55;13.57;;;3.17;;
30010;SDS011;16851;53.564;8.112;2023-06-26T10:19:23;15.43;;;2.83;;
30010;SDS011;16851;53.564;8.112;2023-06-26T10:24:42;16.10;;;2.97;;
30010;SDS011;16851;53.564;8.112;2023-06-26T10:30:00;15.10;;;2.85;;
30010;SDS011;16851;53.564;8.112;2023-06-26T10:35:06;8.05;;;2.15;;
30010;SDS011;16851;53.564;8.112;2023-06-26T10:40:08;9.55;;;2.55;;
30010;SDS011;16851;53.564;8.112;2023-06-26T10:45:14;8.38;;;2.03;;
30010;SDS011;16851;53.564;8.112;2023-06-26T10:50:20;11.57;;;2.05;;
30010;SDS011;16851;53.564;8.112;2023-06-26T10:55:32;10.55;;;2.08;;
30010;SDS011;16851;53.564;8.112;2023-06-26T11:00:34;8.10;;;2.00;;
30010;SDS011;16851;53.564;8.112;2023-06-26T11:05:38;9.45;;;2.15;;
30010;SDS011;16851;53.564;8.112;2023-06-26T11:10:48;13.30;;;2.35;;
30010;SDS011;16851;53.564;8.112;2023-06-26T11:15:55;7.65;;;1.77;;
30010;SDS011;16851;53.564;8.112;2023-06-26T11:21:05;7.85;;;1.90;;
30010;SDS011;16851;53.564;8.112;2023-06-26T11:26:14;8.20;;;2.00;;
30010;SDS011;16851;53.564;8.112;2023-06-26T11:31:26;8.02;;;1.73;;
30010;SDS011;16851;53.564;8.112;2023-06-26T11:36:33;7.25;;;1.85;;
30010;SDS011;16851;53.564;8.112;2023-06-26T11:41:39;6.97;;;2.10;;
30010;SDS011;16851;53.564;8.112;2023-06-26T11:46:46;4.82;;;1.65;;
30010;SDS011;16851;53.564;8.112;2023-06-26T11:51:51;5.80;;;1.67;;
30010;SDS011;16851;53.564;8.112;2023-06-26T11:56:58;5.18;;;1.80;;
30010;SDS011;16851;53.564;8.112;2023-06-26T12:02:09;6.07;;;1.80;;
30010;SDS011;16851;53.564;8.112;2023-06-26T12:07:12;7.07;;;1.83;;
30010;SDS011;16851;53.564;8.112;2023-06-26T12:12:15;5.00;;;2.17;;
30010;SDS011;16851;53.564;8.112;2023-06-26T12:17:18;10.70;;;2.03;;
30010;SDS011;16851;53.564;8.112;2023-06-26T12:22:24;6.45;;;1.70;;
30010;SDS011;16851;53.564;8.112;2023-06-26T12:27:36;8.07;;;1.73;;
30010;SDS011;16851;53.564;8.112;2023-06-26T12:32:37;4.18;;;1.45;;
30010;SDS011;16851;53.564;8.112;2023-06-26T12:37:42;8.15;;;1.75;;
30010;SDS011;16851;53.564;8.112;2023-06-26T12:42:47;4.38;;;1.60;;
30010;SDS011;16851;53.564;8.112;2023-06-26T12:47:49;2.85;;;1.23;;
30010;SDS011;16851;53.564;8.112;2023-06-26T12:52:51;7.30;;;1.52;;
30010;SDS011;16851;53.564;8.112;2023-06-26T12:57:53;6.32;;;1.50;;
30010;SDS011;16851;53.564;8.112;2023-06-26T13:02:55;4.53;;;1.30;;
30010;SDS011;16851;53.564;8.112;2023-06-26T13:07:57;4.78;;;1.30;;
30010;SDS011;16851;53.564;8.112;2023-06-26T13:13:01;4.30;;;1.15;;
30010;SDS011;16851;53.564;8.112;2023-06-26T13:18:03;14.45;;;1.70;;
30010;SDS011;16851;53.564;8.112;2023-06-26T13:23:05;4.50;;;1.38;;
30010;SDS011;16851;53.564;8.112;2023-06-26T13:28:08;5.15;;;1.67;;
30010;SDS011;16851;53.564;8.112;2023-06-26T13:33:11;5.07;;;1.45;;
30010;SDS011;16851;53.564;8.112;2023-06-26T13:38:13;5.50;;;1.40;;
30010;SDS011;16851;53.564;8.112;2023-06-26T13:43:18;5.80;;;1.52;;
30010;SDS011;16851;53.564;8.112;2023-06-26T13:48:21;6.20;;;1.83;;
30010;SDS011;16851;53.564;8.112;2023-06-26T13:53:25;6.78;;;1.50;;
30010;SDS011;16851;53.564;8.112;2023-06-26T13:58:27;11.25;;;1.70;;
30010;SDS011;16851;53.564;8.112;2023-06-26T14:03:33;12.52;;;1.80;;
30010;SDS011;16851;53.564;8.112;2023-06-26T14:08:35;6.95;;;1.80;;
30010;SDS011;16851;53.564;8.112;2023-06-26T14:13:39;6.47;;;1.63;;
30010;SDS011;16851;53.564;8.112;2023-06-26T14:18:41;5.32;;;1.67;;
30010;SDS011;16851;53.564;8.112;2023-06-26T14:23:43;7.13;;;1.77;;
30010;SDS011;16851;53.564;8.112;2023-06-26T14:28:48;6.65;;;1.80;;
30010;SDS011;16851;53.564;8.112;2023-06-26T14:33:50;3.55;;;1.35;;
30010;SDS011;16851;53.564;8.112;2023-06-26T14:38:54;5.00;;;1.55;;
30010;SDS011;16851;53.564;8.112;2023-06-26T14:43:59;3.92;;;1.20;;
30010;SDS011;16851;53.564;8.112;2023-06-26T14:49:03;5.25;;;1.70;;
30010;SDS011;16851;53.564;8.112;2023-06-26T14:54:05;31.42;;;10.10;;
30010;SDS011;16851;53.564;8.112;2023-06-26T14:59:07;37.83;;;8.50;;
30010;SDS011;16851;53.564;8.112;2023-06-26T15:04:14;12.63;;;2.60;;
30010;SDS011;16851;53.564;8.112;2023-06-26T15:09:18;11.98;;;2.30;;
30010;SDS011;16851;53.564;8.112;2023-06-26T15:14:23;8.20;;;2.00;;
30010;SDS011;16851;53.564;8.112;2023-06-26T15:19:25;9.93;;;1.88;;
30010;SDS011;16851;53.564;8.112;2023-06-26T15:24:26;11.40;;;1.92;;
30010;SDS011;16851;53.564;8.112;2023-06-26T15:29:28;9.10;;;2.22;;
30010;SDS011;16851;53.564;8.112;2023-06-26T15:34:30;11.25;;;1.70;;
30010;SDS011;16851;53.564;8.112;2023-06-26T15:39:34;11.93;;;1.88;;
30010;SDS011;16851;53.564;8.112;2023-06-26T15:44:41;9.27;;;1.70;;
30010;SDS011;16851;53.564;8.112;2023-06-26T15:49:42;8.07;;;1.67;;
30010;SDS011;16851;53.564;8.112;2023-06-26T15:54:49;9.23;;;1.70;;
30010;SDS011;16851;53.564;8.112;2023-06-26T15:59:51;9.48;;;2.08;;
30010;SDS011;16851;53.564;8.112;2023-06-26T16:04:52;7.43;;;1.75;;
30010;SDS011;16851;53.564;8.112;2023-06-26T16:09:59;7.43;;;1.90;;
30010;SDS011;16851;53.564;8.112;2023-06-26T16:15:01;11.40;;;1.92;;
30010;SDS011;16851;53.564;8.112;2023-06-26T16:20:03;8.95;;;1.80;;
30010;SDS011;16851;53.564;8.112;2023-06-26T16:25:06;7.30;;;1.70;;
30010;SDS011;16851;53.564;8.112;2023-06-26T16:30:09;9.20;;;1.98;;
30010;SDS011;16851;53.564;8.112;2023-06-26T16:35:11;7.88;;;1.85;;
30010;SDS011;16851;53.564;8.112;2023-06-26T16:40:13;12.43;;;2.03;;
30010;SDS011;16851;53.564;8.112;2023-06-26T16:45:16;10.73;;;2.25;;
30010;SDS011;16851;53.564;8.112;2023-06-26T16:50:19;9.85;;;2.10;;
30010;SDS011;16851;53.564;8.112;2023-06-26T16:55:27;9.82;;;2.33;;
30010;SDS011;16851;53.564;8.112;2023-06-26T17:00:31;9.80;;;1.95;;
30010;SDS011;16851;53.564;8.112;2023-06-26T17:05:33;11.90;;;2.35;;
30010;SDS011;16851;53.564;8.112;2023-06-26T17:10:35;14.15;;;2.65;;
30010;SDS011;16851;53.564;8.112;2023-06-26T17:15:38;7.82;;;2.03;;
30010;SDS011;16851;53.564;8.112;2023-06-26T17:20:39;12.10;;;2.30;;
30010;SDS011;16851;53.564;8.112;2023-06-26T17:25:42;10.15;;;2.20;;
30010;SDS011;16851;53.564;8.112;2023-06-26T17:30:44;12.65;;;2.30;;
30010;SDS011;16851;53.564;8.112;2023-06-26T17:35:46;12.77;;;2.33;;
30010;SDS011;16851;53.564;8.112;2023-06-26T17:40:48;14.77;;;2.63;;
30010;SDS011;16851;53.564;8.112;2023-06-26T17:45:50;10.13;;;2.50;;
30010;SDS011;16851;53.564;8.112;2023-06-26T17:50:55;10.52;;;2.38;;
30010;SDS011;16851;53.564;8.112;2023-06-26T17:55:56;16.73;;;2.35;;
30010;SDS011;16851;53.564;8.112;2023-06-26T18:00:58;14.35;;;2.55;;
30010;SDS011;16851;53.564;8.112;2023-06-26T18:06:00;11.82;;;2.60;;
30010;SDS011;16851;53.564;8.112;2023-06-26T18:11:07;12.30;;;2.33;;
30010;SDS011;16851;53.564;8.112;2023-06-26T18:16:09;15.57;;;2.85;;
30010;SDS011;16851;53.564;8.112;2023-06-26T18:21:11;11.73;;;2.95;;
30010;SDS011;16851;53.564;8.112;2023-06-26T18:26:15;10.35;;;2.20;;
30010;SDS011;16851;53.564;8.112;2023-06-26T18:31:18;12.98;;;3.10;;
30010;SDS011;16851;53.564;8.112;2023-06-26T18:36:22;10.80;;;2.17;;
30010;SDS011;16851;53.564;8.112;2023-06-26T18:41:26;9.70;;;1.80;;
30010;SDS011;16851;53.564;8.112;2023-06-26T18:46:30;12.40;;;2.22;;
30010;SDS011;16851;53.564;8.112;2023-06-26T18:51:32;9.90;;;2.00;;
30010;SDS011;16851;53.564;8.112;2023-06-26T18:56:37;9.93;;;2.10;;
30010;SDS011;16851;53.564;8.112;2023-06-26T19:01:39;13.32;;;2.53;;
30010;SDS011;16851;53.564;8.112;2023-06-26T19:06:41;15.10;;;2.75;;
30010;SDS011;16851;53.564;8.112;2023-06-26T19:11:43;10.82;;;2.95;;
30010;SDS011;16851;53.564;8.112;2023-06-26T19:16:45;12.55;;;2.30;;
30010;SDS011;16851;53.564;8.112;2023-06-26T19:21:46;14.05;;;2.35;;
30010;SDS011;16851;53.564;8.112;2023-06-26T19:26:48;13.68;;;2.67;;
30010;SDS011;16851;53.564;8.112;2023-06-26T19:31:54;15.90;;;2.78;;
30010;SDS011;16851;53.564;8.112;2023-06-26T19:36:59;12.43;;;3.03;;
30010;SDS011;16851;53.564;8.112;2023-06-26T19:42:01;16.50;;;3.10;;
30010;SDS011;16851;53.564;8.112;2023-06-26T19:47:04;13.85;;;2.58;;
30010;SDS011;16851;53.564;8.112;2023-06-26T19:52:06;15.35;;;2.28;;
30010;SDS011;16851;53.564;8.112;2023-06-26T19:57:10;14.05;;;2.63;;
30010;SDS011;16851;53.564;8.112;2023-06-26T20:02:15;15.88;;;2.75;;
30010;SDS011;16851;53.564;8.112;2023-06-26T20:07:17;11.15;;;2.50;;
30010;SDS011;16851;53.564;8.112;2023-06-26T20:12:19;17.85;;;3.60;;
30010;SDS011;16851;53.564;8.112;2023-06-26T20:17:21;15.23;;;2.60;;
30010;SDS011;16851;53.564;8.112;2023-06-26T20:22:24;12.60;;;2.50;;
30010;SDS011;16851;53.564;8.112;2023-06-26T20:27:26;11.68;;;2.85;;
30010;SDS011;16851;53.564;8.112;2023-06-26T20:32:28;11.57;;;2.72;;
30010;SDS011;16851;53.564;8.112;2023-06-26T20:37:29;12.52;;;2.08;;
30010;SDS011;16851;53.564;8.112;2023-06-26T20:42:31;10.27;;;2.47;;
30010;SDS011;16851;53.564;8.112;2023-06-26T20:47:33;15.48;;;2.67;;
30010;SDS011;16851;53.564;8.112;2023-06-26T20:52:42;13.80;;;2.28;;
30010;SDS011;16851;53.564;8.112;2023-06-26T20:57:45;14.00;;;2.58;;
30010;SDS011;16851;53.564;8.112;2023-06-26T21:02:46;15.57;;;2.72;;
30010;SDS011;16851;53.564;8.112;2023-06-26T21:07:51;12.80;;;2.45;;
30010;SDS011;16851;53.564;8.112;2023-06-26T21:12:52;12.35;;;2.38;;
30010;SDS011;16851;53.564;8.112;2023-06-26T21:17:54;14.18;;;2.80;;
30010;SDS011;16851;53.564;8.112;2023-06-26T21:22:58;11.38;;;2.50;;
30010;SDS011;16851;53.564;8.112;2023-06-26T21:28:03;15.18;;;2.58;;
30010;SDS011;16851;53.564;8.112;2023-06-26T21:33:05;10.15;;;2.08;;
30010;SDS011;16851;53.564;8.112;2023-06-26T21:38:11;10.57;;;2.17;;
30010;SDS011;16851;53.564;8.112;2023-06-26T21:43:16;10.27;;;2.53;;
30010;SDS011;16851;53.564;8.112;2023-06-26T21:48:20;13.43;;;2.65;;
30010;SDS011;16851;53.564;8.112;2023-06-26T21:53:26;13.07;;;2.30;;
30010;SDS011;16851;53.564;8.112;2023-06-26T21:58:31;9.52;;;1.90;;
30010;SDS011;16851;53.564;8.112;2023-06-26T22:03:33;12.77;;;2.35;;
30010;SDS011;16851;53.564;8.112;2023-06-26T22:08:34;11.10;;;2.78;;
30010;SDS011;16851;53.564;8.112;2023-06-26T22:13:39;10.85;;;2.55;;
30010;SDS011;16851;53.564;8.112;2023-06-26T22:18:43;15.48;;;2.67;;
30010;SDS011;16851;53.564;8.112;2023-06-26T22:23:47;10.07;;;2.33;;
30010;SDS011;16851;53.564;8.112;2023-06-26T22:28:49;14.52;;;2.35;;
30010;SDS011;16851;53.564;8.112;2023-06-26T22:33:50;9.85;;;1.92;;
30010;SDS011;16851;53.564;8.112;2023-06-26T22:38:52;11.88;;;2.28;;
30010;SDS011;16851;53.564;8.112;2023-06-26T22:43:56;11.32;;;2.65;;
30010;SDS011;16851;53.564;8.112;2023-06-26T22:49:00;14.95;;;2.55;;
30010;SDS011;16851;53.564;8.112;2023-06-26T22:54:10;11.60;;;2.28;;
30010;SDS011;16851;53.564;8.112;2023-06-26T22:59:12;14.85;;;2.42;;
30010;SDS011;16851;53.564;8.112;2023-06-26T23:04:16;8.65;;;2.40;;
30010;SDS011;16851;53.564;8.112;2023-06-26T23:09:17;12.52;;;2.20;;
30010;SDS011;16851;53.564;8.112;2023-06-26T23:14:23;13.60;;;2.17;;
30010;SDS011;16851;53.564;8.112;2023-06-26T23:19:24;12.70;;;2.80;;
30010;SDS011;16851;53.564;8.112;2023-06-26T23:24:29;9.48;;;1.65;;
30010;SDS011;16851;53.564;8.112;2023-06-26T23:29:38;11.57;;;2.20;;
30010;SDS011;16851;53.564;8.112;2023-06-26T23:34:42;10.15;;;1.92;;
30010;SDS011;16851;53.564;8.112;2023-06-26T23:39:50;10.85;;;2.20;;
30010;SDS011;16851;53.564;8.112;2023-06-26T23:44:54;10.63;;;2.28;;
30010;SDS011;16851;53.564;8.112;2023-06-26T23:50:00;11.65;;;2.42;;
30010;SDS011;16851;53.564;8.112;2023-06-26T23:55:05;11.35;;;2.65;;
